sensor_id;sensor_type;location;lat;lon;timestamp;P1;durP1;ratioP1;P2;durP2;ratioP2
19414;SDS011;9843;48.882;12.592;2023-04-06T00:00:10;13.43;;;9.97;;
19414;SDS011;9843;48.882;12.592;2023-04-06T00:02:37;10.77;;;9.67;;
19414;SDS011;9843;48.882;12.592;2023-04-06T00:05:04;10.40;;;9.33;;
19414;SDS011;9843;48.882;12.592;2023-04-06T00:07:32;12.03;;;10.23;;
19414;SDS011;9843;48.882;12.592;2023-04-06T00:09:59;12.77;;;11.30;;
19414;SDS011;9843;48.882;12.592;2023-04-06T00:12:27;10.77;;;9.83;;
19414;SDS011;9843;48.882;12.592;2023-04-06T00:14:54;16.40;;;12.07;;
19414;SDS011;9843;48.882;12.592;2023-04-06T00:17:22;11.03;;;9.60;;
19414;SDS011;9843;48.882;12.592;2023-04-06T00:19:49;14.37;;;10.20;;
19414;SDS011;9843;48.882;12.592;2023-04-06T00:22:16;16.33;;;11.20;;
19414;SDS011;9843;48.882;12.592;2023-04-06T00:24:43;11.77;;;10.67;;
19414;SDS011;9843;48.882;12.592;2023-04-06T00:27:10;12.70;;;11.50;;
19414;SDS011;9843;48.882;12.592;2023-04-06T00:29:39;20.80;;;11.07;;
19414;SDS011;9843;48.882;12.592;2023-04-06T00:32:06;12.57;;;10.27;;
19414;SDS011;9843;48.882;12.592;2023-04-06T00:34:33;15.07;;;11.53;;
19414;SDS011;9843;48.882;12.592;2023-04-06T00:37:00;18.73;;;11.73;;
19414;SDS011;9843;48.882;12.592;2023-04-06T00:39:27;13.37;;;11.97;;
19414;SDS011;9843;48.882;12.592;2023-04-06T00:41:54;12.70;;;11.50;;
19414;SDS011;9843;48.882;12.592;2023-04-06T00:44:22;12.97;;;11.80;;
19414;SDS011;9843;48.882;12.592;2023-04-06T00:46:51;13.03;;;10.63;;
19414;SDS011;9843;48.882;12.592;2023-04-06T00:49:18;13.93;;;11.60;;
19414;SDS011;9843;48.882;12.592;2023-04-06T00:51:45;11.83;;;10.23;;
19414;SDS011;9843;48.882;12.592;2023-04-06T00:54:12;12.20;;;10.87;;
19414;SDS011;9843;48.882;12.592;2023-04-06T00:56:39;30.30;;;12.50;;
19414;SDS011;9843;48.882;12.592;2023-04-06T00:59:08;11.10;;;10.00;;
19414;SDS011;9843;48.882;12.592;2023-04-06T01:01:35;11.20;;;10.10;;
19414;SDS011;9843;48.882;12.592;2023-04-06T01:04:04;17.13;;;12.57;;
19414;SDS011;9843;48.882;12.592;2023-04-06T01:06:31;11.30;;;10.30;;
19414;SDS011;9843;48.882;12.592;2023-04-06T01:08:58;11.20;;;10.30;;
19414;SDS011;9843;48.882;12.592;2023-04-06T01:11:25;12.07;;;10.90;;
19414;SDS011;9843;48.882;12.592;2023-04-06T01:13:52;14.90;;;11.07;;
19414;SDS011;9843;48.882;12.592;2023-04-06T01:16:19;10.10;;;9.13;;
19414;SDS011;9843;48.882;12.592;2023-04-06T01:18:46;12.30;;;10.50;;
19414;SDS011;9843;48.882;12.592;2023-04-06T01:21:15;12.47;;;11.10;;
19414;SDS011;9843;48.882;12.592;2023-04-06T01:23:44;10.93;;;9.93;;
19414;SDS011;9843;48.882;12.592;2023-04-06T01:26:11;14.93;;;11.57;;
19414;SDS011;9843;48.882;12.592;2023-04-06T01:28:39;13.10;;;11.00;;
19414;SDS011;9843;48.882;12.592;2023-04-06T01:31:07;9.57;;;8.80;;
19414;SDS011;9843;48.882;12.592;2023-04-06T01:33:34;12.50;;;10.23;;
19414;SDS011;9843;48.882;12.592;2023-04-06T01:36:02;9.80;;;8.83;;
19414;SDS011;9843;48.882;12.592;2023-04-06T01:38:29;10.60;;;9.63;;
19414;SDS011;9843;48.882;12.592;2023-04-06T01:40:57;9.80;;;9.03;;
19414;SDS011;9843;48.882;12.592;2023-04-06T01:43:25;13.63;;;9.93;;
19414;SDS011;9843;48.882;12.592;2023-04-06T01:45:52;11.33;;;8.83;;
19414;SDS011;9843;48.882;12.592;2023-04-06T01:48:19;10.50;;;9.43;;
19414;SDS011;9843;48.882;12.592;2023-04-06T01:50:46;11.23;;;10.00;;
19414;SDS011;9843;48.882;12.592;2023-04-06T01:53:13;9.80;;;8.83;;
19414;SDS011;9843;48.882;12.592;2023-04-06T01:55:40;10.70;;;9.60;;
19414;SDS011;9843;48.882;12.592;2023-04-06T01:58:09;9.83;;;8.83;;
19414;SDS011;9843;48.882;12.592;2023-04-06T02:00:36;9.80;;;8.83;;
19414;SDS011;9843;48.882;12.592;2023-04-06T02:03:03;13.23;;;11.00;;
19414;SDS011;9843;48.882;12.592;2023-04-06T02:05:30;14.40;;;9.93;;
19414;SDS011;9843;48.882;12.592;2023-04-06T02:07:58;10.70;;;9.73;;
19414;SDS011;9843;48.882;12.592;2023-04-06T02:10:25;11.23;;;9.07;;
19414;SDS011;9843;48.882;12.592;2023-04-06T02:12:52;11.10;;;9.80;;
19414;SDS011;9843;48.882;12.592;2023-04-06T02:15:20;11.90;;;10.83;;
19414;SDS011;9843;48.882;12.592;2023-04-06T02:17:47;10.33;;;9.33;;
19414;SDS011;9843;48.882;12.592;2023-04-06T02:20:14;12.30;;;9.43;;
19414;SDS011;9843;48.882;12.592;2023-04-06T02:22:41;9.67;;;8.73;;
19414;SDS011;9843;48.882;12.592;2023-04-06T02:25:08;10.97;;;9.87;;
19414;SDS011;9843;48.882;12.592;2023-04-06T02:27:35;11.63;;;10.43;;
19414;SDS011;9843;48.882;12.592;2023-04-06T02:30:03;12.00;;;9.87;;
19414;SDS011;9843;48.882;12.592;2023-04-06T02:32:31;10.03;;;9.07;;
19414;SDS011;9843;48.882;12.592;2023-04-06T02:34:58;11.17;;;10.17;;
19414;SDS011;9843;48.882;12.592;2023-04-06T02:37:25;10.73;;;9.73;;
19414;SDS011;9843;48.882;12.592;2023-04-06T02:39:52;10.37;;;9.33;;
19414;SDS011;9843;48.882;12.592;2023-04-06T02:42:20;10.27;;;9.03;;
19414;SDS011;9843;48.882;12.592;2023-04-06T02:44:47;9.43;;;8.63;;
19414;SDS011;9843;48.882;12.592;2023-04-06T02:47:14;12.00;;;9.87;;
19414;SDS011;9843;48.882;12.592;2023-04-06T02:49:42;19.07;;;12.50;;
19414;SDS011;9843;48.882;12.592;2023-04-06T02:52:10;9.47;;;8.63;;
19414;SDS011;9843;48.882;12.592;2023-04-06T02:54:37;14.23;;;9.30;;
19414;SDS011;9843;48.882;12.592;2023-04-06T02:57:04;27.30;;;10.67;;
19414;SDS011;9843;48.882;12.592;2023-04-06T02:59:31;9.60;;;8.77;;
19414;SDS011;9843;48.882;12.592;2023-04-06T03:01:58;11.17;;;8.80;;
19414;SDS011;9843;48.882;12.592;2023-04-06T03:04:25;11.37;;;9.13;;
19414;SDS011;9843;48.882;12.592;2023-04-06T03:06:53;12.50;;;10.23;;
19414;SDS011;9843;48.882;12.592;2023-04-06T03:09:21;11.70;;;10.20;;
19414;SDS011;9843;48.882;12.592;2023-04-06T03:11:48;10.70;;;9.40;;
19414;SDS011;9843;48.882;12.592;2023-04-06T03:14:15;11.60;;;10.50;;
19414;SDS011;9843;48.882;12.592;2023-04-06T03:16:46;12.30;;;10.13;;
19414;SDS011;9843;48.882;12.592;2023-04-06T03:19:13;11.80;;;10.57;;
19414;SDS011;9843;48.882;12.592;2023-04-06T03:21:40;11.13;;;10.13;;
19414;SDS011;9843;48.882;12.592;2023-04-06T03:24:09;12.13;;;10.53;;
19414;SDS011;9843;48.882;12.592;2023-04-06T03:26:36;9.40;;;8.40;;
19414;SDS011;9843;48.882;12.592;2023-04-06T03:29:03;9.60;;;8.63;;
19414;SDS011;9843;48.882;12.592;2023-04-06T03:31:30;9.87;;;8.97;;
19414;SDS011;9843;48.882;12.592;2023-04-06T03:33:57;10.50;;;9.50;;
19414;SDS011;9843;48.882;12.592;2023-04-06T03:36:24;9.67;;;8.30;;
19414;SDS011;9843;48.882;12.592;2023-04-06T03:38:51;14.43;;;10.07;;
19414;SDS011;9843;48.882;12.592;2023-04-06T03:41:20;10.90;;;9.77;;
19414;SDS011;9843;48.882;12.592;2023-04-06T03:43:47;13.83;;;9.57;;
19414;SDS011;9843;48.882;12.592;2023-04-06T03:46:14;12.20;;;10.63;;
19414;SDS011;9843;48.882;12.592;2023-04-06T03:48:41;9.67;;;8.67;;
19414;SDS011;9843;48.882;12.592;2023-04-06T03:51:09;10.53;;;9.50;;
19414;SDS011;9843;48.882;12.592;2023-04-06T03:53:36;10.70;;;9.83;;
19414;SDS011;9843;48.882;12.592;2023-04-06T03:56:03;10.10;;;9.07;;
19414;SDS011;9843;48.882;12.592;2023-04-06T03:58:31;20.73;;;10.10;;
19414;SDS011;9843;48.882;12.592;2023-04-06T04:00:58;14.63;;;11.23;;
19414;SDS011;9843;48.882;12.592;2023-04-06T04:03:25;8.90;;;8.00;;
19414;SDS011;9843;48.882;12.592;2023-04-06T04:05:53;13.87;;;9.57;;
19414;SDS011;9843;48.882;12.592;2023-04-06T04:08:20;11.23;;;10.13;;
19414;SDS011;9843;48.882;12.592;2023-04-06T04:10:47;11.10;;;10.00;;
19414;SDS011;9843;48.882;12.592;2023-04-06T04:13:14;14.70;;;10.03;;
19414;SDS011;9843;48.882;12.592;2023-04-06T04:15:43;11.97;;;10.77;;
19414;SDS011;9843;48.882;12.592;2023-04-06T04:18:12;12.30;;;9.33;;
19414;SDS011;9843;48.882;12.592;2023-04-06T04:20:39;17.23;;;12.27;;
19414;SDS011;9843;48.882;12.592;2023-04-06T04:23:06;12.00;;;10.90;;
19414;SDS011;9843;48.882;12.592;2023-04-06T04:25:33;16.90;;;11.47;;
19414;SDS011;9843;48.882;12.592;2023-04-06T04:28:00;18.63;;;11.13;;
19414;SDS011;9843;48.882;12.592;2023-04-06T04:30:27;10.57;;;9.23;;
19414;SDS011;9843;48.882;12.592;2023-04-06T04:32:56;13.10;;;10.37;;
19414;SDS011;9843;48.882;12.592;2023-04-06T04:35:23;10.57;;;9.57;;
19414;SDS011;9843;48.882;12.592;2023-04-06T04:37:50;11.63;;;9.37;;
19414;SDS011;9843;48.882;12.592;2023-04-06T04:40:17;12.70;;;11.40;;
19414;SDS011;9843;48.882;12.592;2023-04-06T04:42:44;11.37;;;9.37;;
19414;SDS011;9843;48.882;12.592;2023-04-06T04:45:11;13.27;;;11.37;;
19414;SDS011;9843;48.882;12.592;2023-04-06T04:47:38;26.80;;;12.53;;
19414;SDS011;9843;48.882;12.592;2023-04-06T04:50:07;12.47;;;10.07;;
19414;SDS011;9843;48.882;12.592;2023-04-06T04:52:34;19.13;;;11.23;;
19414;SDS011;9843;48.882;12.592;2023-04-06T04:55:01;12.63;;;10.93;;
19414;SDS011;9843;48.882;12.592;2023-04-06T04:57:28;17.07;;;12.77;;
19414;SDS011;9843;48.882;12.592;2023-04-06T04:59:55;17.33;;;12.80;;
19414;SDS011;9843;48.882;12.592;2023-04-06T05:02:22;16.20;;;14.50;;
19414;SDS011;9843;48.882;12.592;2023-04-06T05:04:50;17.47;;;11.90;;
19414;SDS011;9843;48.882;12.592;2023-04-06T05:07:18;12.30;;;11.20;;
19414;SDS011;9843;48.882;12.592;2023-04-06T05:09:45;19.80;;;12.30;;
19414;SDS011;9843;48.882;12.592;2023-04-06T05:12:13;23.70;;;14.97;;
19414;SDS011;9843;48.882;12.592;2023-04-06T05:14:40;22.23;;;14.30;;
19414;SDS011;9843;48.882;12.592;2023-04-06T05:17:07;15.90;;;14.00;;
19414;SDS011;9843;48.882;12.592;2023-04-06T05:19:35;16.87;;;12.40;;
19414;SDS011;9843;48.882;12.592;2023-04-06T05:22:02;17.60;;;11.60;;
19414;SDS011;9843;48.882;12.592;2023-04-06T05:24:30;13.03;;;11.70;;
19414;SDS011;9843;48.882;12.592;2023-04-06T05:26:57;13.70;;;11.30;;
19414;SDS011;9843;48.882;12.592;2023-04-06T05:29:25;12.40;;;10.50;;
19414;SDS011;9843;48.882;12.592;2023-04-06T05:31:52;13.23;;;11.07;;
19414;SDS011;9843;48.882;12.592;2023-04-06T05:34:19;13.43;;;10.83;;
19414;SDS011;9843;48.882;12.592;2023-04-06T05:36:46;11.67;;;9.53;;
19414;SDS011;9843;48.882;12.592;2023-04-06T05:39:13;13.43;;;9.97;;
19414;SDS011;9843;48.882;12.592;2023-04-06T05:41:42;10.00;;;9.20;;
19414;SDS011;9843;48.882;12.592;2023-04-06T05:44:09;13.00;;;10.13;;
19414;SDS011;9843;48.882;12.592;2023-04-06T05:46:36;13.83;;;9.27;;
19414;SDS011;9843;48.882;12.592;2023-04-06T05:49:03;14.23;;;10.83;;
19414;SDS011;9843;48.882;12.592;2023-04-06T05:51:30;14.47;;;9.83;;
19414;SDS011;9843;48.882;12.592;2023-04-06T05:53:57;15.10;;;12.33;;
19414;SDS011;9843;48.882;12.592;2023-04-06T05:56:24;11.83;;;10.50;;
19414;SDS011;9843;48.882;12.592;2023-04-06T05:58:52;14.30;;;11.33;;
19414;SDS011;9843;48.882;12.592;2023-04-06T06:01:19;11.23;;;10.13;;
19414;SDS011;9843;48.882;12.592;2023-04-06T06:03:46;14.47;;;11.63;;
19414;SDS011;9843;48.882;12.592;2023-04-06T06:06:13;12.30;;;11.07;;
19414;SDS011;9843;48.882;12.592;2023-04-06T06:08:40;11.63;;;10.53;;
19414;SDS011;9843;48.882;12.592;2023-04-06T06:11:07;11.30;;;9.93;;
19414;SDS011;9843;48.882;12.592;2023-04-06T06:13:35;15.00;;;11.63;;
19414;SDS011;9843;48.882;12.592;2023-04-06T06:16:04;12.27;;;9.90;;
19414;SDS011;9843;48.882;12.592;2023-04-06T06:18:31;13.10;;;11.87;;
19414;SDS011;9843;48.882;12.592;2023-04-06T06:20:58;15.80;;;11.90;;
19414;SDS011;9843;48.882;12.592;2023-04-06T06:23:25;10.00;;;9.00;;
19414;SDS011;9843;48.882;12.592;2023-04-06T06:25:52;12.57;;;10.30;;
19414;SDS011;9843;48.882;12.592;2023-04-06T06:28:22;21.47;;;9.93;;
19414;SDS011;9843;48.882;12.592;2023-04-06T06:30:51;10.13;;;8.83;;
19414;SDS011;9843;48.882;12.592;2023-04-06T06:33:19;11.03;;;10.03;;
19414;SDS011;9843;48.882;12.592;2023-04-06T06:35:46;14.67;;;11.37;;
19414;SDS011;9843;48.882;12.592;2023-04-06T06:38:13;10.97;;;8.17;;
19414;SDS011;9843;48.882;12.592;2023-04-06T06:40:40;10.00;;;8.60;;
19414;SDS011;9843;48.882;12.592;2023-04-06T06:43:07;11.20;;;8.90;;
19414;SDS011;9843;48.882;12.592;2023-04-06T06:45:34;15.53;;;9.53;;
19414;SDS011;9843;48.882;12.592;2023-04-06T06:48:01;13.73;;;8.37;;
19414;SDS011;9843;48.882;12.592;2023-04-06T06:50:30;9.60;;;8.73;;
19414;SDS011;9843;48.882;12.592;2023-04-06T06:52:57;13.07;;;7.97;;
19414;SDS011;9843;48.882;12.592;2023-04-06T06:55:24;12.80;;;8.67;;
19414;SDS011;9843;48.882;12.592;2023-04-06T06:57:51;17.10;;;8.77;;
19414;SDS011;9843;48.882;12.592;2023-04-06T07:00:18;12.00;;;8.57;;
19414;SDS011;9843;48.882;12.592;2023-04-06T07:02:46;10.67;;;7.23;;
19414;SDS011;9843;48.882;12.592;2023-04-06T07:05:13;7.83;;;7.10;;
19414;SDS011;9843;48.882;12.592;2023-04-06T07:07:42;10.17;;;7.83;;
19414;SDS011;9843;48.882;12.592;2023-04-06T07:10:09;9.13;;;7.43;;
19414;SDS011;9843;48.882;12.592;2023-04-06T07:12:36;6.07;;;5.57;;
19414;SDS011;9843;48.882;12.592;2023-04-06T07:15:04;11.23;;;6.60;;
19414;SDS011;9843;48.882;12.592;2023-04-06T07:17:31;12.20;;;7.57;;
19414;SDS011;9843;48.882;12.592;2023-04-06T07:19:58;9.07;;;6.47;;
19414;SDS011;9843;48.882;12.592;2023-04-06T07:22:25;10.07;;;6.10;;
19414;SDS011;9843;48.882;12.592;2023-04-06T07:24:53;7.73;;;7.00;;
19414;SDS011;9843;48.882;12.592;2023-04-06T07:27:20;10.30;;;6.53;;
19414;SDS011;9843;48.882;12.592;2023-04-06T07:29:47;15.93;;;6.70;;
19414;SDS011;9843;48.882;12.592;2023-04-06T07:32:14;8.63;;;5.63;;
19414;SDS011;9843;48.882;12.592;2023-04-06T07:34:41;10.43;;;6.40;;
19414;SDS011;9843;48.882;12.592;2023-04-06T07:37:10;11.57;;;7.03;;
19414;SDS011;9843;48.882;12.592;2023-04-06T07:39:37;6.93;;;5.77;;
19414;SDS011;9843;48.882;12.592;2023-04-06T07:42:05;8.20;;;5.97;;
19414;SDS011;9843;48.882;12.592;2023-04-06T07:44:32;5.40;;;4.90;;
19414;SDS011;9843;48.882;12.592;2023-04-06T07:46:59;6.90;;;5.57;;
19414;SDS011;9843;48.882;12.592;2023-04-06T07:49:26;6.93;;;5.10;;
19414;SDS011;9843;48.882;12.592;2023-04-06T07:51:53;8.43;;;6.10;;
19414;SDS011;9843;48.882;12.592;2023-04-06T07:54:20;8.10;;;5.77;;
19414;SDS011;9843;48.882;12.592;2023-04-06T07:56:48;7.57;;;6.50;;
19414;SDS011;9843;48.882;12.592;2023-04-06T07:59:16;5.93;;;5.30;;
19414;SDS011;9843;48.882;12.592;2023-04-06T08:01:43;7.17;;;5.10;;
19414;SDS011;9843;48.882;12.592;2023-04-06T08:04:10;8.67;;;6.30;;
19414;SDS011;9843;48.882;12.592;2023-04-06T08:06:37;5.80;;;5.20;;
19414;SDS011;9843;48.882;12.592;2023-04-06T08:09:05;7.40;;;5.63;;
19414;SDS011;9843;48.882;12.592;2023-04-06T08:11:32;7.37;;;6.07;;
19414;SDS011;9843;48.882;12.592;2023-04-06T08:14:00;8.77;;;5.70;;
19414;SDS011;9843;48.882;12.592;2023-04-06T08:16:28;7.13;;;6.30;;
19414;SDS011;9843;48.882;12.592;2023-04-06T08:18:55;7.13;;;6.50;;
19414;SDS011;9843;48.882;12.592;2023-04-06T08:21:22;6.23;;;5.33;;
19414;SDS011;9843;48.882;12.592;2023-04-06T08:23:50;11.40;;;6.47;;
19414;SDS011;9843;48.882;12.592;2023-04-06T08:26:17;11.03;;;5.93;;
19414;SDS011;9843;48.882;12.592;2023-04-06T08:28:44;9.20;;;5.77;;
19414;SDS011;9843;48.882;12.592;2023-04-06T08:31:11;14.97;;;7.27;;
19414;SDS011;9843;48.882;12.592;2023-04-06T08:33:39;8.77;;;7.03;;
19414;SDS011;9843;48.882;12.592;2023-04-06T08:36:07;9.17;;;6.40;;
19414;SDS011;9843;48.882;12.592;2023-04-06T08:38:34;8.30;;;6.00;;
19414;SDS011;9843;48.882;12.592;2023-04-06T08:41:06;7.83;;;6.17;;
19414;SDS011;9843;48.882;12.592;2023-04-06T08:43:33;8.10;;;5.97;;
19414;SDS011;9843;48.882;12.592;2023-04-06T08:46:01;7.00;;;5.63;;
19414;SDS011;9843;48.882;12.592;2023-04-06T08:48:29;12.83;;;6.87;;
19414;SDS011;9843;48.882;12.592;2023-04-06T08:50:58;14.40;;;5.70;;
19414;SDS011;9843;48.882;12.592;2023-04-06T08:53:25;8.30;;;6.17;;
19414;SDS011;9843;48.882;12.592;2023-04-06T08:55:53;9.13;;;6.37;;
19414;SDS011;9843;48.882;12.592;2023-04-06T08:58:20;8.50;;;6.53;;
19414;SDS011;9843;48.882;12.592;2023-04-06T09:00:48;6.63;;;5.97;;
19414;SDS011;9843;48.882;12.592;2023-04-06T09:03:15;5.80;;;5.20;;
19414;SDS011;9843;48.882;12.592;2023-04-06T09:05:43;6.30;;;5.70;;
19414;SDS011;9843;48.882;12.592;2023-04-06T09:08:12;15.37;;;5.53;;
19414;SDS011;9843;48.882;12.592;2023-04-06T09:10:40;6.50;;;4.77;;
19414;SDS011;9843;48.882;12.592;2023-04-06T09:13:07;7.37;;;4.90;;
19414;SDS011;9843;48.882;12.592;2023-04-06T09:15:34;11.27;;;4.93;;
19414;SDS011;9843;48.882;12.592;2023-04-06T09:18:01;8.70;;;4.83;;
19414;SDS011;9843;48.882;12.592;2023-04-06T09:20:28;9.13;;;6.03;;
19414;SDS011;9843;48.882;12.592;2023-04-06T09:22:55;7.93;;;5.47;;
19414;SDS011;9843;48.882;12.592;2023-04-06T09:25:24;6.30;;;4.80;;
19414;SDS011;9843;48.882;12.592;2023-04-06T09:27:58;6.70;;;5.13;;
19414;SDS011;9843;48.882;12.592;2023-04-06T09:30:26;7.47;;;4.73;;
19414;SDS011;9843;48.882;12.592;2023-04-06T09:32:53;8.60;;;5.63;;
19414;SDS011;9843;48.882;12.592;2023-04-06T09:35:21;10.10;;;5.57;;
19414;SDS011;9843;48.882;12.592;2023-04-06T09:37:49;6.90;;;5.20;;
19414;SDS011;9843;48.882;12.592;2023-04-06T09:40:16;6.23;;;5.17;;
19414;SDS011;9843;48.882;12.592;2023-04-06T09:42:46;6.17;;;4.83;;
19414;SDS011;9843;48.882;12.592;2023-04-06T09:45:13;8.43;;;5.33;;
19414;SDS011;9843;48.882;12.592;2023-04-06T09:47:42;5.33;;;4.13;;
19414;SDS011;9843;48.882;12.592;2023-04-06T09:50:10;4.68;;;4.28;;
19414;SDS011;9843;48.882;12.592;2023-04-06T09:52:38;4.75;;;3.88;;
19414;SDS011;9843;48.882;12.592;2023-04-06T09:55:08;4.78;;;3.90;;
19414;SDS011;9843;48.882;12.592;2023-04-06T09:57:37;5.53;;;4.82;;
19414;SDS011;9843;48.882;12.592;2023-04-06T10:00:07;5.55;;;4.75;;
19414;SDS011;9843;48.882;12.592;2023-04-06T10:02:39;6.25;;;4.68;;
19414;SDS011;9843;48.882;12.592;2023-04-06T10:05:09;6.30;;;3.97;;
19414;SDS011;9843;48.882;12.592;2023-04-06T10:07:39;5.82;;;3.17;;
19414;SDS011;9843;48.882;12.592;2023-04-06T10:10:07;8.40;;;3.47;;
19414;SDS011;9843;48.882;12.592;2023-04-06T10:12:35;5.78;;;4.30;;
19414;SDS011;9843;48.882;12.592;2023-04-06T10:15:03;4.18;;;3.30;;
19414;SDS011;9843;48.882;12.592;2023-04-06T10:17:31;4.85;;;3.75;;
19414;SDS011;9843;48.882;12.592;2023-04-06T10:19:59;4.03;;;2.70;;
19414;SDS011;9843;48.882;12.592;2023-04-06T10:22:29;5.93;;;3.47;;
19414;SDS011;9843;48.882;12.592;2023-04-06T10:24:59;4.70;;;2.80;;
19414;SDS011;9843;48.882;12.592;2023-04-06T10:27:29;5.13;;;3.58;;
19414;SDS011;9843;48.882;12.592;2023-04-06T10:30:00;4.95;;;3.35;;
19414;SDS011;9843;48.882;12.592;2023-04-06T10:32:33;4.18;;;3.65;;
19414;SDS011;9843;48.882;12.592;2023-04-06T10:35:07;4.35;;;3.92;;
19414;SDS011;9843;48.882;12.592;2023-04-06T10:37:47;6.15;;;2.75;;
19414;SDS011;9843;48.882;12.592;2023-04-06T10:40:23;5.60;;;4.00;;
19414;SDS011;9843;48.882;12.592;2023-04-06T10:42:51;4.53;;;3.65;;
19414;SDS011;9843;48.882;12.592;2023-04-06T10:45:19;5.22;;;4.40;;
19414;SDS011;9843;48.882;12.592;2023-04-06T10:47:47;11.70;;;4.57;;
19414;SDS011;9843;48.882;12.592;2023-04-06T10:50:15;3.42;;;2.72;;
19414;SDS011;9843;48.882;12.592;2023-04-06T10:52:43;4.72;;;3.70;;
19414;SDS011;9843;48.882;12.592;2023-04-06T10:55:10;4.28;;;3.42;;
19414;SDS011;9843;48.882;12.592;2023-04-06T10:57:38;5.07;;;3.53;;
19414;SDS011;9843;48.882;12.592;2023-04-06T11:00:06;4.68;;;3.85;;
19414;SDS011;9843;48.882;12.592;2023-04-06T11:02:34;5.25;;;3.90;;
19414;SDS011;9843;48.882;12.592;2023-04-06T11:05:02;5.53;;;3.97;;
19414;SDS011;9843;48.882;12.592;2023-04-06T11:07:30;5.55;;;3.95;;
19414;SDS011;9843;48.882;12.592;2023-04-06T11:09:57;6.80;;;4.38;;
19414;SDS011;9843;48.882;12.592;2023-04-06T11:12:24;5.43;;;3.72;;
19414;SDS011;9843;48.882;12.592;2023-04-06T11:14:55;11.18;;;4.43;;
19414;SDS011;9843;48.882;12.592;2023-04-06T11:17:29;6.10;;;4.22;;
19414;SDS011;9843;48.882;12.592;2023-04-06T11:19:56;4.20;;;3.63;;
19414;SDS011;9843;48.882;12.592;2023-04-06T11:22:25;5.32;;;4.47;;
19414;SDS011;9843;48.882;12.592;2023-04-06T11:24:52;13.18;;;5.63;;
19414;SDS011;9843;48.882;12.592;2023-04-06T11:27:19;5.85;;;4.50;;
19414;SDS011;9843;48.882;12.592;2023-04-06T11:29:46;6.18;;;3.95;;
19414;SDS011;9843;48.882;12.592;2023-04-06T11:32:19;7.97;;;5.07;;
19414;SDS011;9843;48.882;12.592;2023-04-06T11:34:47;7.80;;;5.32;;
19414;SDS011;9843;48.882;12.592;2023-04-06T11:37:14;4.57;;;3.42;;
19414;SDS011;9843;48.882;12.592;2023-04-06T11:39:46;5.97;;;3.97;;
19414;SDS011;9843;48.882;12.592;2023-04-06T11:42:20;4.03;;;3.63;;
19414;SDS011;9843;48.882;12.592;2023-04-06T11:44:49;4.97;;;4.00;;
19414;SDS011;9843;48.882;12.592;2023-04-06T11:47:17;10.70;;;4.40;;
19414;SDS011;9843;48.882;12.592;2023-04-06T11:49:44;8.48;;;4.65;;
19414;SDS011;9843;48.882;12.592;2023-04-06T11:52:15;6.18;;;3.80;;
19414;SDS011;9843;48.882;12.592;2023-04-06T11:54:44;11.00;;;4.97;;
19414;SDS011;9843;48.882;12.592;2023-04-06T11:57:11;9.00;;;4.40;;
19414;SDS011;9843;48.882;12.592;2023-04-06T11:59:38;10.93;;;4.80;;
19414;SDS011;9843;48.882;12.592;2023-04-06T12:02:06;6.90;;;4.45;;
19414;SDS011;9843;48.882;12.592;2023-04-06T12:04:33;4.57;;;3.67;;
19414;SDS011;9843;48.882;12.592;2023-04-06T12:07:00;4.72;;;3.53;;
19414;SDS011;9843;48.882;12.592;2023-04-06T12:09:27;6.85;;;3.40;;
19414;SDS011;9843;48.882;12.592;2023-04-06T12:11:56;4.22;;;3.70;;
19414;SDS011;9843;48.882;12.592;2023-04-06T12:14:23;5.25;;;3.88;;
19414;SDS011;9843;48.882;12.592;2023-04-06T12:16:50;6.13;;;3.70;;
19414;SDS011;9843;48.882;12.592;2023-04-06T12:19:17;4.70;;;3.90;;
19414;SDS011;9843;48.882;12.592;2023-04-06T12:21:44;4.22;;;3.20;;
19414;SDS011;9843;48.882;12.592;2023-04-06T12:24:11;5.97;;;3.92;;
19414;SDS011;9843;48.882;12.592;2023-04-06T12:26:38;6.05;;;4.20;;
19414;SDS011;9843;48.882;12.592;2023-04-06T12:29:07;5.25;;;3.75;;
19414;SDS011;9843;48.882;12.592;2023-04-06T12:31:35;7.78;;;4.28;;
19414;SDS011;9843;48.882;12.592;2023-04-06T12:34:03;9.88;;;4.80;;
19414;SDS011;9843;48.882;12.592;2023-04-06T12:36:30;4.95;;;3.20;;
19414;SDS011;9843;48.882;12.592;2023-04-06T12:38:58;5.05;;;4.53;;
19414;SDS011;9843;48.882;12.592;2023-04-06T12:41:25;7.50;;;4.22;;
19414;SDS011;9843;48.882;12.592;2023-04-06T12:43:52;5.43;;;4.07;;
19414;SDS011;9843;48.882;12.592;2023-04-06T12:46:20;5.05;;;4.50;;
19414;SDS011;9843;48.882;12.592;2023-04-06T12:48:48;4.57;;;4.03;;
19414;SDS011;9843;48.882;12.592;2023-04-06T12:51:18;7.05;;;4.00;;
19414;SDS011;9843;48.882;12.592;2023-04-06T12:53:45;5.97;;;3.65;;
19414;SDS011;9843;48.882;12.592;2023-04-06T12:56:13;5.82;;;4.72;;
19414;SDS011;9843;48.882;12.592;2023-04-06T12:58:40;4.85;;;4.35;;
19414;SDS011;9843;48.882;12.592;2023-04-06T13:01:07;5.38;;;3.67;;
19414;SDS011;9843;48.882;12.592;2023-04-06T13:03:36;4.80;;;4.18;;
19414;SDS011;9843;48.882;12.592;2023-04-06T13:06:04;4.25;;;3.67;;
19414;SDS011;9843;48.882;12.592;2023-04-06T13:08:31;7.13;;;4.40;;
19414;SDS011;9843;48.882;12.592;2023-04-06T13:10:58;6.18;;;5.18;;
19414;SDS011;9843;48.882;12.592;2023-04-06T13:13:26;5.60;;;4.28;;
19414;SDS011;9843;48.882;12.592;2023-04-06T13:15:54;5.82;;;4.13;;
19414;SDS011;9843;48.882;12.592;2023-04-06T13:18:21;5.85;;;4.70;;
19414;SDS011;9843;48.882;12.592;2023-04-06T13:20:50;6.28;;;4.22;;
19414;SDS011;9843;48.882;12.592;2023-04-06T13:23:17;8.27;;;5.10;;
19414;SDS011;9843;48.882;12.592;2023-04-06T13:25:44;8.60;;;4.32;;
19414;SDS011;9843;48.882;12.592;2023-04-06T13:28:11;5.55;;;3.35;;
19414;SDS011;9843;48.882;12.592;2023-04-06T13:30:38;7.82;;;3.85;;
19414;SDS011;9843;48.882;12.592;2023-04-06T13:33:05;7.22;;;4.32;;
19414;SDS011;9843;48.882;12.592;2023-04-06T13:35:32;6.05;;;3.88;;
19414;SDS011;9843;48.882;12.592;2023-04-06T13:38:02;5.63;;;3.58;;
19414;SDS011;9843;48.882;12.592;2023-04-06T13:40:29;5.15;;;4.25;;
19414;SDS011;9843;48.882;12.592;2023-04-06T13:42:56;4.80;;;4.07;;
19414;SDS011;9843;48.882;12.592;2023-04-06T13:45:23;9.00;;;4.18;;
19414;SDS011;9843;48.882;12.592;2023-04-06T13:47:50;5.15;;;4.40;;
19414;SDS011;9843;48.882;12.592;2023-04-06T13:50:17;9.38;;;3.30;;
19414;SDS011;9843;48.882;12.592;2023-04-06T13:52:44;5.43;;;4.13;;
19414;SDS011;9843;48.882;12.592;2023-04-06T13:55:13;5.30;;;4.07;;
19414;SDS011;9843;48.882;12.592;2023-04-06T13:57:40;6.25;;;3.15;;
19414;SDS011;9843;48.882;12.592;2023-04-06T14:00:08;4.80;;;3.97;;
19414;SDS011;9843;48.882;12.592;2023-04-06T14:02:36;5.50;;;3.65;;
19414;SDS011;9843;48.882;12.592;2023-04-06T14:05:03;8.35;;;4.07;;
19414;SDS011;9843;48.882;12.592;2023-04-06T14:07:30;4.45;;;3.33;;
19414;SDS011;9843;48.882;12.592;2023-04-06T14:09:57;9.68;;;5.40;;
19414;SDS011;9843;48.882;12.592;2023-04-06T14:12:26;7.05;;;3.85;;
19414;SDS011;9843;48.882;12.592;2023-04-06T14:14:53;4.60;;;4.03;;
19414;SDS011;9843;48.882;12.592;2023-04-06T14:17:20;10.48;;;5.60;;
19414;SDS011;9843;48.882;12.592;2023-04-06T14:19:47;5.80;;;4.68;;
19414;SDS011;9843;48.882;12.592;2023-04-06T14:22:14;5.50;;;3.60;;
19414;SDS011;9843;48.882;12.592;2023-04-06T14:24:41;5.45;;;4.25;;
19414;SDS011;9843;48.882;12.592;2023-04-06T14:27:08;7.45;;;4.38;;
19414;SDS011;9843;48.882;12.592;2023-04-06T14:29:37;6.95;;;5.13;;
19414;SDS011;9843;48.882;12.592;2023-04-06T14:32:04;7.65;;;4.30;;
19414;SDS011;9843;48.882;12.592;2023-04-06T14:34:31;7.07;;;5.07;;
19414;SDS011;9843;48.882;12.592;2023-04-06T14:36:58;6.80;;;5.70;;
19414;SDS011;9843;48.882;12.592;2023-04-06T14:39:25;5.87;;;5.37;;